Terminal Aerodrome Forecast
Issued by NWS

Home | Current Version | Previous Version | Text Only | Print | Product List | Glossary On
Versions: 1 2 3 4 5 6 7 8 9 10 11 12 13 14
591
FTUS43 KDVN 251125
TAFBRL
TAF
KBRL 251125Z 2512/2612 30009KT P6SM SKC
     FM251700 29013G18KT P6SM SCT050
     FM260000 28006KT P6SM SKC=

USA.gov is the U.S. government's official web portal to all federal, state and local government web resources and services.